Time;durP1;ratioP1;P1;durP2;ratioP2;P2;SDS_P1;SDS_P2;PMS_P1;PMS_P2;Temp;Humidity;BMP_temperature;BMP_pressure;BME280_temperature;BME280_humidity;BME280_pressure;Samples;Min_cycle;Max_cycle;Signal;HPM_P1;HPM_P2
2022/08/20 00:02:23;;;;;;;1.60;1.40;;;21.10;99.90;;;;;;6063021;23;20445;-68
2022/08/20 00:04:50;;;;;;;2.10;1.90;;;21.10;99.90;;;;;;6063047;23;20432;-68
2022/08/20 00:07:17;;;;;;;1.57;1.47;;;21.00;99.90;;;;;;6063234;23;20436;-68
2022/08/20 00:09:45;;;;;;;1.70;1.60;;;21.00;99.90;;;;;;6063056;23;20431;-68
2022/08/20 00:12:15;;;;;;;1.63;1.53;;;20.90;99.90;;;;;;6062670;23;20456;-68
2022/08/20 00:14:42;;;;;;;1.70;1.27;;;20.90;99.90;;;;;;6062898;23;20930;-69
2022/08/20 00:17:09;;;;;;;1.67;1.57;;;20.80;99.90;;;;;;6062765;23;20427;-68
2022/08/20 00:19:38;;;;;;;1.50;1.40;;;20.80;99.90;;;;;;6063514;23;20430;-68
2022/08/20 00:22:05;;;;;;;3.00;1.60;;;20.70;99.90;;;;;;6063138;23;20447;-68
2022/08/20 00:24:33;;;;;;;1.83;1.33;;;20.70;99.90;;;;;;6063250;23;20460;-68
2022/08/20 00:27:01;;;;;;;1.30;1.20;;;20.70;99.90;;;;;;6062091;23;20455;-67
2022/08/20 00:29:29;;;;;;;3.40;1.57;;;20.60;99.90;;;;;;6062989;23;20438;-68
2022/08/20 00:31:56;;;;;;;1.57;1.20;;;20.60;99.90;;;;;;6062966;23;20523;-68
2022/08/20 00:34:23;;;;;;;1.43;1.33;;;20.50;99.90;;;;;;6063077;23;20431;-68
2022/08/20 00:36:51;;;;;;;2.10;1.70;;;20.50;99.90;;;;;;6062706;23;20487;-68
2022/08/20 00:39:19;;;;;;;2.00;1.60;;;20.50;99.90;;;;;;6062992;23;20432;-68
2022/08/20 00:41:46;;;;;;;1.57;1.47;;;20.50;99.90;;;;;;6062837;23;20446;-68
2022/08/20 00:44:17;;;;;;;2.20;1.80;;;20.40;99.90;;;;;;6063217;23;20495;-68
2022/08/20 00:46:46;;;;;;;1.90;1.50;;;20.40;99.90;;;;;;6062907;23;20466;-68
2022/08/20 00:49:18;;;;;;;1.60;1.50;;;20.40;99.90;;;;;;6062833;23;20448;-68
2022/08/20 00:51:48;;;;;;;2.47;1.53;;;20.30;99.90;;;;;;6063067;23;20426;-68
2022/08/20 00:54:20;;;;;;;2.20;1.60;;;20.30;99.90;;;;;;6063235;23;20421;-68
2022/08/20 00:56:50;;;;;;;2.20;1.60;;;20.30;99.90;;;;;;6062935;23;20566;-68
2022/08/20 00:59:21;;;;;;;1.83;1.63;;;20.30;99.90;;;;;;6063463;23;20420;-68
2022/08/20 01:01:49;;;;;;;1.43;1.33;;;20.30;99.90;;;;;;6062983;23;20424;-68
2022/08/20 01:04:16;;;;;;;1.83;1.60;;;20.30;99.90;;;;;;6062781;23;20840;-68
2022/08/20 01:06:44;;;;;;;1.50;1.40;;;20.20;99.90;;;;;;6062677;23;20466;-68
2022/08/20 01:09:12;;;;;;;1.50;1.33;;;20.20;99.90;;;;;;6063265;23;20518;-68
2022/08/20 01:11:40;;;;;;;1.50;1.40;;;20.20;99.90;;;;;;6063166;23;20430;-68
2022/08/20 01:14:23;;;;;;;1.57;1.47;;;20.20;99.90;;;;;;6062666;23;20914;-68
2022/08/20 01:16:54;;;;;;;1.67;1.57;;;20.20;99.90;;;;;;6062466;23;20494;-68
2022/08/20 01:19:27;;;;;;;1.60;1.50;;;20.20;99.90;;;;;;6062534;23;20427;-68
2022/08/20 01:21:55;;;;;;;1.87;1.73;;;20.20;99.90;;;;;;6063116;23;20452;-68
2022/08/20 01:24:26;;;;;;;1.60;1.47;;;20.20;99.90;;;;;;6062453;23;20428;-68
2022/08/20 01:26:55;;;;;;;1.70;1.50;;;20.20;99.90;;;;;;6062570;23;20782;-68
2022/08/20 01:29:25;;;;;;;1.80;1.70;;;20.30;99.90;;;;;;6062700;23;20423;-68
2022/08/20 01:31:52;;;;;;;1.67;1.57;;;20.30;99.90;;;;;;6062699;23;20447;-68
2022/08/20 01:34:20;;;;;;;1.60;1.50;;;20.30;99.90;;;;;;6062932;23;20439;-68
2022/08/20 01:36:50;;;;;;;1.57;1.47;;;20.30;99.90;;;;;;6062621;23;20502;-68
2022/08/20 01:39:21;;;;;;;1.63;1.40;;;20.30;99.90;;;;;;6062688;23;20423;-68
2022/08/20 01:41:57;;;;;;;1.70;1.60;;;20.30;99.90;;;;;;6062654;23;20499;-68
2022/08/20 01:44:24;;;;;;;1.97;1.87;;;20.30;99.90;;;;;;6062789;23;20493;-68
2022/08/20 01:46:54;;;;;;;1.77;1.67;;;20.40;99.90;;;;;;6062557;23;20471;-68
2022/08/20 01:49:25;;;;;;;1.80;1.70;;;20.40;99.90;;;;;;6062663;23;20454;-68
2022/08/20 01:51:54;;;;;;;1.70;1.60;;;20.40;99.90;;;;;;6062798;23;20480;-68
2022/08/20 01:54:22;;;;;;;1.60;1.50;;;20.30;99.90;;;;;;6062744;23;20482;-68
2022/08/20 01:56:59;;;;;;;1.60;1.50;;;20.40;99.90;;;;;;6061849;23;20493;-68
2022/08/20 01:59:27;;;;;;;1.57;1.47;;;20.40;99.90;;;;;;6062877;23;20467;-68
2022/08/20 02:01:55;;;;;;;3.97;1.40;;;20.40;99.90;;;;;;6062460;23;21014;-68
2022/08/20 02:04:22;;;;;;;2.83;1.70;;;20.40;99.90;;;;;;6062650;23;20443;-69
2022/08/20 02:06:53;;;;;;;1.70;1.60;;;20.40;99.90;;;;;;6062177;23;20423;-68
2022/08/20 02:09:21;;;;;;;1.57;1.47;;;20.40;99.90;;;;;;6062132;23;20411;-68
2022/08/20 02:11:49;;;;;;;1.60;1.50;;;20.40;99.90;;;;;;6062748;23;20444;-69
2022/08/20 02:14:17;;;;;;;1.80;1.70;;;20.40;99.90;;;;;;6062749;23;20438;-68
2022/08/20 02:16:46;;;;;;;2.10;2.00;;;20.40;99.90;;;;;;6061754;23;20858;-68
2022/08/20 02:19:18;;;;;;;1.77;1.67;;;20.40;99.90;;;;;;6061161;23;20424;-68
2022/08/20 02:21:50;;;;;;;1.60;1.50;;;20.40;99.90;;;;;;6061055;23;20486;-68
2022/08/20 02:24:18;;;;;;;1.70;1.60;;;20.40;99.90;;;;;;6062853;23;20526;-69
2022/08/20 02:26:45;;;;;;;1.67;1.57;;;20.40;99.90;;;;;;6062409;23;20466;-68
2022/08/20 02:29:13;;;;;;;1.67;1.57;;;20.30;99.90;;;;;;6062545;23;20433;-68
2022/08/20 02:31:44;;;;;;;1.90;1.80;;;20.30;99.90;;;;;;6062313;23;20486;-68
2022/08/20 02:34:13;;;;;;;1.80;1.70;;;20.30;99.90;;;;;;6062250;23;20437;-68
2022/08/20 02:36:42;;;;;;;3.47;1.87;;;20.30;99.90;;;;;;6062213;23;20457;-68
2022/08/20 02:39:12;;;;;;;1.63;1.53;;;20.30;99.90;;;;;;6063950;23;20499;-68
2022/08/20 02:41:40;;;;;;;2.30;2.00;;;20.30;99.90;;;;;;6063597;23;20454;-68
2022/08/20 02:44:08;;;;;;;1.93;1.70;;;20.40;99.90;;;;;;6063669;23;20420;-68
2022/08/20 02:46:35;;;;;;;2.07;1.97;;;20.40;99.90;;;;;;6062539;23;20821;-68
2022/08/20 02:49:06;;;;;;;1.87;1.77;;;20.40;99.90;;;;;;6063261;23;20458;-68
2022/08/20 02:51:33;;;;;;;2.20;2.00;;;20.40;99.90;;;;;;6063662;23;20424;-69
2022/08/20 02:54:00;;;;;;;1.97;1.87;;;20.30;99.90;;;;;;6063837;23;20459;-68
2022/08/20 02:56:27;;;;;;;1.80;1.70;;;20.40;99.90;;;;;;6063119;23;20474;-68
2022/08/20 02:58:54;;;;;;;2.27;2.07;;;20.30;99.90;;;;;;6063633;23;20445;-68
2022/08/20 03:01:22;;;;;;;2.30;2.10;;;20.30;99.90;;;;;;6063004;23;20613;-69
2022/08/20 03:03:49;;;;;;;2.10;2.00;;;20.30;99.90;;;;;;6063746;23;20425;-68
2022/08/20 03:06:17;;;;;;;2.10;2.00;;;20.30;99.90;;;;;;6063392;23;20766;-68
2022/08/20 03:08:44;;;;;;;2.10;1.90;;;20.30;99.90;;;;;;6063224;23;20425;-69
2022/08/20 03:11:12;;;;;;;2.50;2.30;;;20.20;99.90;;;;;;6063474;23;20490;-69
2022/08/20 03:13:39;;;;;;;2.27;2.10;;;20.30;99.90;;;;;;6063458;23;20455;-68
2022/08/20 03:16:07;;;;;;;1.93;1.83;;;20.20;99.90;;;;;;6062799;23;20455;-69
2022/08/20 03:18:37;;;;;;;3.40;2.10;;;20.20;99.90;;;;;;6063591;23;20416;-68
2022/08/20 03:21:05;;;;;;;2.80;2.20;;;20.30;99.90;;;;;;6062963;23;20927;-68
2022/08/20 03:23:34;;;;;;;2.30;2.20;;;20.20;99.90;;;;;;6063224;23;21013;-68
2022/08/20 03:26:03;;;;;;;2.30;2.13;;;20.30;99.90;;;;;;6062979;23;20423;-68
2022/08/20 03:28:30;;;;;;;2.40;2.30;;;20.20;99.90;;;;;;6063116;23;20441;-69
2022/08/20 03:30:58;;;;;;;2.87;2.30;;;20.20;99.90;;;;;;6063395;23;20893;-69
2022/08/20 03:33:26;;;;;;;2.77;2.57;;;20.30;99.90;;;;;;6063341;23;20446;-68
2022/08/20 03:35:53;;;;;;;2.33;2.17;;;20.30;99.90;;;;;;6062951;23;20496;-68
2022/08/20 03:38:22;;;;;;;2.57;2.37;;;20.20;99.90;;;;;;6063322;23;20517;-68
2022/08/20 03:40:51;;;;;;;2.60;2.23;;;20.20;99.90;;;;;;6063340;23;20464;-68
2022/08/20 03:43:18;;;;;;;2.90;2.60;;;20.20;99.90;;;;;;6062771;23;20451;-68
2022/08/20 03:45:46;;;;;;;2.40;2.30;;;20.20;99.90;;;;;;6062949;23;20770;-68
2022/08/20 03:48:16;;;;;;;2.70;2.50;;;20.20;99.90;;;;;;6063307;23;20463;-68
2022/08/20 03:50:45;;;;;;;2.77;2.57;;;20.20;99.90;;;;;;6063146;23;20607;-68
2022/08/20 03:53:13;;;;;;;3.13;2.83;;;20.20;99.90;;;;;;6063239;23;20517;-68
2022/08/20 03:55:42;;;;;;;3.13;2.83;;;20.20;99.90;;;;;;6062520;23;20420;-69
2022/08/20 03:58:12;;;;;;;2.90;2.70;;;20.10;99.90;;;;;;6063281;23;20482;-68
2022/08/20 04:00:42;;;;;;;2.93;2.73;;;20.10;99.90;;;;;;6063464;23;20435;-68
2022/08/20 04:03:10;;;;;;;3.10;2.80;;;20.10;99.90;;;;;;6063410;23;20435;-68
2022/08/20 04:05:40;;;;;;;3.07;2.83;;;20.10;99.90;;;;;;6063057;23;20467;-68
2022/08/20 04:08:09;;;;;;;3.00;2.80;;;20.10;99.90;;;;;;6063059;23;20482;-68
2022/08/20 04:10:36;;;;;;;2.67;2.50;;;20.10;99.90;;;;;;6063228;23;20435;-68
2022/08/20 04:13:04;;;;;;;3.00;2.80;;;20.10;99.90;;;;;;6063014;23;20818;-68
2022/08/20 04:15:34;;;;;;;3.23;2.80;;;20.10;99.90;;;;;;6063008;23;20430;-68
2022/08/20 04:18:04;;;;;;;3.30;3.10;;;20.10;99.90;;;;;;6063235;23;20475;-68
2022/08/20 04:20:31;;;;;;;3.10;2.90;;;20.10;99.90;;;;;;6063174;23;20438;-69
2022/08/20 04:22:58;;;;;;;3.00;2.80;;;20.10;99.90;;;;;;6063010;23;20471;-69
2022/08/20 04:25:25;;;;;;;2.73;2.53;;;20.10;99.90;;;;;;6063052;23;20419;-69
2022/08/20 04:27:52;;;;;;;3.80;3.30;;;20.10;99.90;;;;;;6063152;23;20427;-68
2022/08/20 04:30:20;;;;;;;3.20;2.90;;;20.10;99.90;;;;;;6062732;23;20431;-69
2022/08/20 04:32:49;;;;;;;3.40;3.10;;;20.10;99.90;;;;;;6063138;23;20591;-69
2022/08/20 04:35:16;;;;;;;2.70;2.50;;;20.20;99.90;;;;;;6062710;23;20466;-69
2022/08/20 04:37:46;;;;;;;2.90;2.70;;;20.20;99.90;;;;;;6062450;23;20463;-69
2022/08/20 04:43:01;;;;;;;3.10;2.90;;;20.20;99.90;;;;;;6063176;23;20435;-69
2022/08/20 04:45:28;;;;;;;3.67;3.47;;;20.20;99.90;;;;;;6062567;23;20431;-69
2022/08/20 04:47:56;;;;;;;3.50;3.30;;;20.20;99.90;;;;;;6062881;23;20439;-69
2022/08/20 04:50:24;;;;;;;3.27;3.07;;;20.30;99.90;;;;;;6063137;23;20434;-69
2022/08/20 04:52:51;;;;;;;3.43;3.20;;;20.20;99.90;;;;;;6063182;23;20446;-69
2022/08/20 04:55:18;;;;;;;3.67;3.37;;;20.20;99.90;;;;;;6062788;23;20419;-69
2022/08/20 04:57:45;;;;;;;3.37;3.17;;;20.20;99.90;;;;;;6062944;23;20545;-69
2022/08/20 05:00:16;;;;;;;3.13;2.93;;;20.20;99.90;;;;;;6061924;23;20458;-69
2022/08/20 05:02:43;;;;;;;3.80;3.50;;;20.30;99.90;;;;;;6063110;23;20446;-69
2022/08/20 05:05:13;;;;;;;3.27;3.00;;;20.30;99.90;;;;;;6062919;23;20431;-69
2022/08/20 05:07:43;;;;;;;3.57;3.27;;;20.30;99.90;;;;;;6063039;23;21046;-69
2022/08/20 05:10:12;;;;;;;4.27;3.90;;;20.30;99.90;;;;;;6062588;23;20937;-69
2022/08/20 05:12:40;;;;;;;3.40;3.10;;;20.30;99.90;;;;;;6062592;23;20544;-69
2022/08/20 05:15:10;;;;;;;3.63;3.43;;;20.40;99.90;;;;;;6062878;23;20423;-69
2022/08/20 05:17:37;;;;;;;3.60;3.30;;;20.40;99.90;;;;;;6063141;23;20498;-69
2022/08/20 05:20:06;;;;;;;3.27;2.97;;;20.40;99.90;;;;;;6063047;23;20416;-69
2022/08/20 05:22:34;;;;;;;3.47;3.20;;;20.40;99.90;;;;;;6062809;23;20998;-68
2022/08/20 05:25:20;;;;;;;3.80;3.50;;;20.40;99.90;;;;;;6062603;23;20395;-69
2022/08/20 05:27:48;;;;;;;3.83;3.53;;;20.40;99.90;;;;;;6062574;23;20448;-69
2022/08/20 05:30:15;;;;;;;4.20;3.90;;;20.40;99.90;;;;;;6062898;23;20436;-69
2022/08/20 05:32:43;;;;;;;4.17;3.87;;;20.40;99.90;;;;;;6062345;23;20967;-69
2022/08/20 05:35:10;;;;;;;4.33;3.93;;;20.40;99.90;;;;;;6062815;23;20463;-68
2022/08/20 05:37:40;;;;;;;3.97;3.70;;;20.40;99.90;;;;;;6062388;23;20552;-69
2022/08/20 05:40:13;;;;;;;3.67;3.47;;;20.40;99.90;;;;;;6063096;23;20923;-69
2022/08/20 05:42:41;;;;;;;4.20;3.83;;;20.40;99.90;;;;;;6062703;23;20454;-69
2022/08/20 05:45:08;;;;;;;4.20;3.90;;;20.40;99.90;;;;;;6062562;23;20435;-68
2022/08/20 05:47:39;;;;;;;3.93;3.63;;;20.40;99.90;;;;;;6062340;23;20832;-69
2022/08/20 05:50:08;;;;;;;4.00;3.70;;;20.40;99.90;;;;;;6062730;23;20504;-69
2022/08/20 05:52:36;;;;;;;3.87;3.57;;;20.30;99.90;;;;;;6062838;23;20443;-68
2022/08/20 05:55:06;;;;;;;4.43;4.13;;;20.40;99.90;;;;;;6062464;23;20886;-69
2022/08/20 05:57:33;;;;;;;4.30;3.87;;;20.40;99.90;;;;;;6062739;23;20463;-68
2022/08/20 06:00:02;;;;;;;3.60;3.30;;;20.40;99.90;;;;;;6062536;23;20478;-68
2022/08/20 06:05:26;;;;;;;4.20;3.77;;;20.40;99.90;;;;;;5919234;24;20466;-69
2022/08/20 06:07:53;;;;;;;4.40;4.10;;;20.40;99.90;;;;;;6029221;23;20435;-68
2022/08/20 06:10:22;;;;;;;4.13;3.80;;;20.50;99.90;;;;;;6062322;23;20469;-69
2022/08/20 06:12:52;;;;;;;4.40;4.00;;;20.50;99.90;;;;;;6062160;23;21014;-69
2022/08/20 06:15:19;;;;;;;4.40;4.10;;;20.50;99.90;;;;;;6062195;23;20470;-68
2022/08/20 06:17:46;;;;;;;3.97;3.70;;;20.50;99.90;;;;;;6062524;23;20538;-69
2022/08/20 06:20:13;;;;;;;4.17;3.77;;;20.60;99.90;;;;;;6062764;23;20430;-69
2022/08/20 06:22:41;;;;;;;3.77;3.50;;;20.70;99.90;;;;;;6062323;23;20488;-69
2022/08/20 06:25:09;;;;;;;4.27;3.97;;;20.80;99.90;;;;;;6061872;23;20422;-69
2022/08/20 06:27:40;;;;;;;3.97;3.67;;;20.80;99.90;;;;;;6062505;23;20435;-69
2022/08/20 06:30:08;;;;;;;3.93;3.70;;;20.90;99.90;;;;;;6062851;23;20443;-69
2022/08/20 06:32:35;;;;;;;4.30;4.00;;;21.00;99.90;;;;;;6062576;23;20461;-68
2022/08/20 06:35:05;;;;;;;3.77;3.40;;;21.00;99.90;;;;;;6062045;23;20467;-68
2022/08/20 06:37:38;;;;;;;3.80;3.50;;;21.10;99.90;;;;;;6062145;23;20543;-69
2022/08/20 06:40:10;;;;;;;4.17;3.87;;;21.10;99.90;;;;;;6062487;23;20582;-69
2022/08/20 06:42:42;;;;;;;3.90;3.70;;;21.20;99.90;;;;;;6062583;23;20958;-69
2022/08/20 06:45:10;;;;;;;4.00;3.70;;;21.30;99.90;;;;;;6061696;23;20467;-70
2022/08/20 06:47:40;;;;;;;5.03;4.40;;;21.30;99.90;;;;;;6062480;23;20519;-69
2022/08/20 06:50:09;;;;;;;4.17;3.87;;;21.40;99.90;;;;;;6062273;23;20874;-68
2022/08/20 06:52:38;;;;;;;3.80;3.50;;;21.40;99.90;;;;;;6061990;23;20446;-70
2022/08/20 06:55:07;;;;;;;3.70;3.40;;;21.50;99.90;;;;;;6061859;23;20434;-69
2022/08/20 06:57:35;;;;;;;4.10;3.77;;;21.40;99.90;;;;;;6062476;23;20462;-69
2022/08/20 07:00:05;;;;;;;4.17;3.87;;;21.40;99.90;;;;;;6062216;23;20437;-69
2022/08/20 07:02:34;;;;;;;5.43;4.93;;;21.40;99.90;;;;;;6062009;23;20446;-69
2022/08/20 07:05:01;;;;;;;4.37;3.97;;;21.30;99.90;;;;;;6061336;23;20454;-69
2022/08/20 07:07:29;;;;;;;4.40;4.10;;;21.00;99.90;;;;;;6061870;23;20470;-68
2022/08/20 07:10:00;;;;;;;4.83;4.53;;;21.10;99.90;;;;;;6062143;23;20443;-69
2022/08/20 07:12:33;;;;;;;4.70;4.13;;;21.00;99.90;;;;;;6061969;23;21038;-69
2022/08/20 07:15:07;;;;;;;4.80;4.37;;;21.00;99.90;;;;;;6050141;23;20435;-70
2022/08/20 07:17:35;;;;;;;4.83;4.43;;;21.00;99.90;;;;;;6062012;23;20460;-70
2022/08/20 07:20:04;;;;;;;4.70;4.30;;;21.10;99.90;;;;;;6062284;23;20454;-70
2022/08/20 07:22:34;;;;;;;4.20;3.80;;;21.10;99.90;;;;;;6062329;23;20992;-69
2022/08/20 07:25:01;;;;;;;4.93;4.40;;;21.20;99.90;;;;;;6063233;23;20432;-68
2022/08/20 07:27:33;;;;;;;4.40;4.00;;;21.30;99.90;;;;;;6063459;23;20433;-69
2022/08/20 07:32:46;;;;;;;4.43;4.03;;;21.60;99.90;;;;;;6063605;23;20485;-69
2022/08/20 07:35:16;;;;;;;3.90;3.60;;;21.80;99.90;;;;;;6063302;23;20481;-70
2022/08/20 07:37:50;;;;;;;4.00;3.73;;;21.90;99.90;;;;;;6063233;23;20850;-70
2022/08/20 07:40:26;;;;;;;4.00;3.70;;;22.10;99.90;;;;;;6062678;23;20446;-68
2022/08/20 07:42:53;;;;;;;4.57;4.17;;;22.20;99.90;;;;;;6063217;23;20493;-69
2022/08/20 07:45:21;;;;;;;4.20;3.90;;;22.30;99.90;;;;;;6062944;23;20485;-68
2022/08/20 07:47:52;;;;;;;3.80;3.50;;;22.40;99.90;;;;;;6062983;23;20752;-68
2022/08/20 07:50:23;;;;;;;4.80;3.80;;;22.60;99.90;;;;;;6063442;23;20498;-68
2022/08/20 07:52:52;;;;;;;4.47;4.17;;;22.60;99.90;;;;;;6063198;23;20558;-69
2022/08/20 07:55:20;;;;;;;4.67;4.30;;;22.70;99.90;;;;;;6062572;23;20432;-69
2022/08/20 07:57:48;;;;;;;4.30;4.00;;;22.70;99.90;;;;;;6063225;23;20509;-69
2022/08/20 08:00:18;;;;;;;4.23;3.83;;;22.70;99.90;;;;;;6063444;23;20512;-69
2022/08/20 08:02:45;;;;;;;4.07;3.60;;;22.80;99.90;;;;;;6063380;23;20427;-68
2022/08/20 08:05:14;;;;;;;4.43;4.07;;;22.90;99.90;;;;;;6062719;23;20431;-69
2022/08/20 08:07:42;;;;;;;3.93;3.63;;;23.10;99.90;;;;;;6062429;23;20783;-69
2022/08/20 08:10:12;;;;;;;5.00;4.60;;;23.40;99.90;;;;;;6063023;23;20523;-68
2022/08/20 08:12:43;;;;;;;4.30;3.90;;;23.30;99.90;;;;;;6063166;23;20467;-68
2022/08/20 08:15:15;;;;;;;4.30;4.00;;;23.30;99.90;;;;;;6062972;23;20519;-69
2022/08/20 08:17:44;;;;;;;5.23;4.67;;;23.40;99.90;;;;;;6062832;23;20608;-69
2022/08/20 08:20:13;;;;;;;4.60;4.27;;;23.40;99.90;;;;;;6063127;23;20419;-70
2022/08/20 08:22:41;;;;;;;4.50;4.20;;;23.40;99.90;;;;;;6063293;23;20459;-69
2022/08/20 08:25:10;;;;;;;4.97;4.57;;;23.30;99.90;;;;;;6062895;23;20458;-69
2022/08/20 08:27:37;;;;;;;4.80;3.90;;;23.30;99.90;;;;;;6063266;23;20441;-68
2022/08/20 08:30:06;;;;;;;5.33;4.40;;;23.20;99.90;;;;;;6062870;23;20439;-69
2022/08/20 08:32:34;;;;;;;4.50;4.20;;;23.10;99.90;;;;;;6062538;23;20514;-69
2022/08/20 08:35:07;;;;;;;4.30;4.00;;;23.00;99.90;;;;;;6062639;23;20434;-69
2022/08/20 08:37:36;;;;;;;5.17;4.67;;;23.00;99.90;;;;;;6063056;23;20454;-69
2022/08/20 08:40:05;;;;;;;5.57;4.20;;;23.00;99.90;;;;;;6063051;23;20493;-69
2022/08/20 08:42:40;;;;;;;4.40;4.00;;;23.00;99.90;;;;;;6062571;23;20459;-69
2022/08/20 08:45:09;;;;;;;4.10;3.80;;;23.20;99.90;;;;;;6062768;23;20786;-69
2022/08/20 08:47:40;;;;;;;4.90;4.50;;;23.40;99.90;;;;;;6063306;23;20424;-70
2022/08/20 08:50:13;;;;;;;4.33;4.03;;;23.70;99.90;;;;;;6063126;23;20460;-70
2022/08/20 08:52:43;;;;;;;4.20;3.90;;;23.90;99.90;;;;;;6063004;23;20854;-70
2022/08/20 08:55:16;;;;;;;3.70;3.50;;;24.20;99.90;;;;;;6062749;23;20956;-69
2022/08/20 08:57:44;;;;;;;3.80;3.50;;;24.40;99.90;;;;;;6063212;23;20481;-70
2022/08/20 09:00:16;;;;;;;3.77;3.47;;;24.80;99.90;;;;;;6062901;23;20434;-68
2022/08/20 09:02:54;;;;;;;3.87;3.60;;;25.10;99.90;;;;;;6063851;23;20420;-70
2022/08/20 09:05:27;;;;;;;3.70;3.50;;;25.40;99.90;;;;;;6062961;23;20443;-69
2022/08/20 09:07:56;;;;;;;4.13;3.83;;;25.60;99.90;;;;;;6063139;23;20489;-69
2022/08/20 09:10:23;;;;;;;3.73;3.43;;;25.70;99.90;;;;;;6062761;23;20839;-69
2022/08/20 09:12:51;;;;;;;3.13;2.93;;;25.70;99.90;;;;;;6063176;23;20510;-67
2022/08/20 09:15:19;;;;;;;3.67;3.37;;;25.90;99.90;;;;;;6062412;23;20426;-69
2022/08/20 09:17:47;;;;;;;3.13;2.93;;;26.00;99.90;;;;;;6062919;23;20492;-69
2022/08/20 09:20:14;;;;;;;2.97;2.77;;;26.00;99.90;;;;;;6062764;23;20510;-69
2022/08/20 09:22:41;;;;;;;3.10;2.90;;;25.90;99.90;;;;;;6062868;23;20914;-69
2022/08/20 09:25:10;;;;;;;2.47;2.27;;;25.70;99.90;;;;;;6062871;23;20430;-69
2022/08/20 09:27:37;;;;;;;2.47;2.27;;;25.60;99.90;;;;;;6062878;23;20783;-68
2022/08/20 09:30:05;;;;;;;2.50;2.00;;;25.50;99.90;;;;;;6062426;23;20796;-69
2022/08/20 09:32:32;;;;;;;2.70;2.50;;;25.50;99.90;;;;;;6063072;23;20433;-69
2022/08/20 09:34:59;;;;;;;2.80;2.60;;;25.70;99.90;;;;;;6062619;23;20419;-69
2022/08/20 09:37:28;;;;;;;3.67;3.37;;;25.90;99.90;;;;;;6062535;23;20958;-69
2022/08/20 09:39:56;;;;;;;3.83;3.20;;;26.10;99.90;;;;;;6062576;23;20463;-69
2022/08/20 09:42:26;;;;;;;3.33;3.10;;;26.10;99.90;;;;;;6062823;23;20447;-69
2022/08/20 09:44:54;;;;;;;3.20;3.00;;;26.20;99.90;;;;;;6062096;23;20938;-69
2022/08/20 09:47:22;;;;;;;3.03;2.83;;;26.20;99.90;;;;;;6063004;23;20492;-69
2022/08/20 09:49:49;;;;;;;3.53;2.87;;;26.20;99.90;;;;;;6062313;23;20420;-70
2022/08/20 09:52:21;;;;;;;3.10;2.80;;;26.20;99.90;;;;;;6062829;23;20454;-69
2022/08/20 09:54:49;;;;;;;2.77;2.57;;;26.40;99.90;;;;;;6062481;23;20450;-69
2022/08/20 09:57:17;;;;;;;2.87;2.67;;;26.60;99.90;;;;;;6062894;23;20420;-70
2022/08/20 09:59:51;;;;;;;2.60;2.40;;;26.70;99.90;;;;;;6062354;23;20549;-69
2022/08/20 10:02:18;;;;;;;2.60;2.40;;;26.90;99.90;;;;;;6062684;23;20490;-69
2022/08/20 10:04:45;;;;;;;2.90;2.57;;;27.20;99.90;;;;;;6062285;23;20922;-69
2022/08/20 10:07:12;;;;;;;2.60;2.40;;;27.30;99.90;;;;;;6062758;23;20506;-69
2022/08/20 10:09:39;;;;;;;3.10;2.80;;;27.40;99.90;;;;;;6062557;23;20431;-69
2022/08/20 10:12:07;;;;;;;2.47;2.37;;;27.50;99.90;;;;;;6062422;23;20455;-69
2022/08/20 10:14:34;;;;;;;2.50;2.30;;;27.40;99.90;;;;;;6062325;23;20420;-69
2022/08/20 10:17:03;;;;;;;2.37;2.17;;;27.50;99.90;;;;;;6062047;23;20431;-70
2022/08/20 10:19:31;;;;;;;2.40;2.20;;;27.90;99.90;;;;;;6062324;23;20951;-69
2022/08/20 10:21:58;;;;;;;2.43;2.23;;;28.30;99.90;;;;;;6062370;23;20962;-69
2022/08/20 10:24:26;;;;;;;3.00;2.63;;;28.60;99.90;;;;;;6062417;23;20919;-69
2022/08/20 10:26:55;;;;;;;2.40;2.20;;;28.70;99.90;;;;;;6061812;23;20455;-69
2022/08/20 10:29:22;;;;;;;2.63;2.47;;;28.50;99.90;;;;;;6062366;23;20425;-70
2022/08/20 10:31:49;;;;;;;1.93;1.83;;;28.10;99.90;;;;;;6062387;23;21023;-69
2022/08/20 10:34:18;;;;;;;2.50;2.30;;;27.80;99.90;;;;;;6062718;23;20511;-69
2022/08/20 10:36:45;;;;;;;2.00;1.60;;;27.20;99.90;;;;;;6062014;23;20423;-69
2022/08/20 10:39:12;;;;;;;1.97;1.87;;;26.90;99.90;;;;;;6062194;23;20463;-69
2022/08/20 10:41:40;;;;;;;1.77;1.67;;;26.80;99.90;;;;;;6062309;23;20456;-69
2022/08/20 10:44:07;;;;;;;2.50;2.30;;;26.70;99.90;;;;;;6062287;23;20455;-69
2022/08/20 10:46:35;;;;;;;2.30;2.20;;;27.00;99.90;;;;;;6062299;23;20419;-69
2022/08/20 10:49:02;;;;;;;2.67;2.57;;;27.20;99.90;;;;;;6062204;23;20462;-69
2022/08/20 10:51:32;;;;;;;2.87;2.67;;;27.30;99.90;;;;;;6062247;23;20447;-69
2022/08/20 10:53:59;;;;;;;3.30;3.00;;;27.10;99.90;;;;;;6062341;23;20474;-69
2022/08/20 10:56:26;;;;;;;2.87;2.67;;;26.90;99.90;;;;;;6061815;23;20443;-69
2022/08/20 10:58:56;;;;;;;2.40;2.30;;;26.60;99.90;;;;;;6063471;23;20494;-69
2022/08/20 11:01:23;;;;;;;3.10;2.80;;;26.30;99.90;;;;;;6063694;23;20473;-69
2022/08/20 11:03:50;;;;;;;2.47;2.37;;;26.30;99.90;;;;;;6063136;23;20423;-69
2022/08/20 11:06:17;;;;;;;4.30;1.93;;;26.20;99.90;;;;;;6063128;23;20992;-69
2022/08/20 11:08:49;;;;;;;2.53;2.33;;;26.20;99.90;;;;;;6063617;23;20447;-69
2022/08/20 11:11:16;;;;;;;1.90;1.80;;;26.10;99.90;;;;;;6062937;23;20455;-69
2022/08/20 11:13:43;;;;;;;2.37;2.27;;;26.20;99.90;;;;;;6062995;23;20442;-69
2022/08/20 11:16:13;;;;;;;2.30;2.10;;;26.20;99.90;;;;;;6063229;23;20466;-69
2022/08/20 11:18:42;;;;;;;2.10;2.00;;;26.70;99.90;;;;;;6063484;23;20516;-69
2022/08/20 11:21:09;;;;;;;2.20;2.00;;;27.10;99.90;;;;;;6062917;23;20530;-69
2022/08/20 11:23:39;;;;;;;1.60;1.50;;;27.10;99.90;;;;;;6063456;23;20424;-69
2022/08/20 11:26:07;;;;;;;1.70;1.60;;;27.10;99.90;;;;;;6063443;23;20439;-69
2022/08/20 11:28:34;;;;;;;1.53;1.43;;;27.10;99.90;;;;;;6063853;23;20954;-69
2022/08/20 11:31:04;;;;;;;1.50;1.40;;;27.00;99.90;;;;;;6063522;23;20542;-70
2022/08/20 11:33:31;;;;;;;1.90;1.50;;;27.00;99.90;;;;;;6063081;23;20435;-69
2022/08/20 11:36:00;;;;;;;2.73;1.80;;;27.00;99.90;;;;;;6063023;23;20443;-70
2022/08/20 11:38:28;;;;;;;2.10;2.00;;;27.00;99.90;;;;;;6063693;23;20474;-70
2022/08/20 11:40:57;;;;;;;2.67;2.50;;;26.90;99.90;;;;;;6063673;23;20522;-70
2022/08/20 11:43:26;;;;;;;2.40;2.30;;;27.00;99.90;;;;;;6063277;23;20439;-69
2022/08/20 11:45:55;;;;;;;2.67;2.47;;;26.90;99.90;;;;;;6062668;23;20453;-70
2022/08/20 11:48:22;;;;;;;2.70;1.80;;;26.70;99.90;;;;;;6063527;23;20427;-70
2022/08/20 11:50:50;;;;;;;2.57;2.37;;;26.60;99.90;;;;;;6062836;23;20447;-71
2022/08/20 11:53:20;;;;;;;5.73;3.50;;;26.50;99.90;;;;;;6063811;23;20466;-71
2022/08/20 11:55:48;;;;;;;7.73;4.80;;;26.20;99.90;;;;;;6062754;23;20432;-72
2022/08/20 11:58:15;;;;;;;5.43;4.30;;;26.10;99.90;;;;;;6063416;23;20428;-72
2022/08/20 12:00:46;;;;;;;6.60;4.03;;;25.80;99.90;;;;;;6063149;23;20481;-72
2022/08/20 12:03:16;;;;;;;4.40;4.00;;;25.30;99.90;;;;;;6063257;23;20456;-71
2022/08/20 12:05:45;;;;;;;3.90;2.87;;;24.80;99.90;;;;;;6062463;23;21003;-72
2022/08/20 12:08:14;;;;;;;4.27;3.27;;;24.20;99.90;;;;;;6063239;23;20427;-71
2022/08/20 12:10:47;;;;;;;3.87;2.60;;;23.70;99.90;;;;;;6063102;23;20954;-71
2022/08/20 12:13:22;;;;;;;4.43;3.53;;;23.30;99.90;;;;;;6063214;23;20427;-70
2022/08/20 12:15:53;;;;;;;3.00;2.43;;;23.00;99.90;;;;;;6062704;23;20419;-70
2022/08/20 12:18:21;;;;;;;3.20;2.63;;;22.80;99.90;;;;;;6062895;23;20507;-70
2022/08/20 12:20:48;;;;;;;3.00;2.63;;;22.60;99.90;;;;;;6063137;23;20854;-70
2022/08/20 12:23:15;;;;;;;2.80;2.60;;;22.40;99.90;;;;;;6063198;23;20424;-70
2022/08/20 12:25:42;;;;;;;4.03;2.97;;;22.20;99.90;;;;;;6062864;23;20454;-70
2022/08/20 12:28:12;;;;;;;3.60;2.90;;;22.10;99.90;;;;;;6063162;23;20454;-70
2022/08/20 12:30:40;;;;;;;3.27;2.70;;;21.80;99.90;;;;;;6063131;23;20930;-70
2022/08/20 12:33:10;;;;;;;5.77;3.70;;;21.70;99.90;;;;;;6063268;23;20774;-70
2022/08/20 12:35:37;;;;;;;3.77;3.40;;;21.70;99.90;;;;;;6062510;23;20514;-70
2022/08/20 12:38:05;;;;;;;3.33;3.03;;;21.80;99.90;;;;;;6063248;23;20431;-70
2022/08/20 12:40:33;;;;;;;3.93;2.87;;;21.80;99.90;;;;;;6062956;23;20558;-69
2022/08/20 12:43:01;;;;;;;3.40;2.23;;;21.70;99.90;;;;;;6063404;23;20482;-70
2022/08/20 12:45:28;;;;;;;3.83;3.47;;;21.70;99.90;;;;;;6062203;23;20428;-70
2022/08/20 12:48:01;;;;;;;3.95;2.60;;;21.70;99.90;;;;;;6062197;23;20451;-70
2022/08/20 12:50:30;;;;;;;2.50;2.20;;;21.70;99.90;;;;;;6063153;23;20266;-70
2022/08/20 12:52:57;;;;;;;4.03;3.13;;;21.40;99.90;;;;;;6062999;23;20476;-71
2022/08/20 12:55:24;;;;;;;10.03;4.70;;;20.70;99.90;;;;;;6062650;23;20431;-71
2022/08/20 12:57:55;;;;;;;4.00;3.00;;;20.20;99.90;;;;;;6062656;23;20425;-70
2022/08/20 13:00:25;;;;;;;4.78;4.00;;;19.90;99.90;;;;;;6061945;23;20515;-71
2022/08/20 13:02:55;;;;;;;6.18;4.38;;;19.60;99.90;;;;;;6061803;23;20475;-70
2022/08/20 13:05:23;;;;;;;4.50;4.10;;;19.50;99.90;;;;;;6061380;23;20459;-70